Time;durP1;ratioP1;P1;durP2;ratioP2;P2;SDS_P1;SDS_P2;PMS_P1;PMS_P2;Temp;Humidity;BMP_temperature;BMP_pressure;BME280_temperature;BME280_humidity;BME280_pressure;Samples;Min_cycle;Max_cycle;Signal;HPM_P1;HPM_P2
2023/10/03 00:00:53;;;;;;;14.27;11.07;;;;;;;17.38;100.00;101258.38;6263696;28;20661;-69
2023/10/03 00:04:15;;;;;;;16.52;12.18;;;;;;;17.29;100.00;101245.78;6264543;28;20236;-69
2023/10/03 00:07:36;;;;;;;15.00;10.63;;;;;;;17.27;100.00;101236.94;6262237;28;20227;-69
2023/10/03 00:10:57;;;;;;;15.18;10.93;;;;;;;17.28;100.00;101225.00;6279935;28;20322;-69
2023/10/03 00:14:18;;;;;;;14.50;10.55;;;;;;;17.29;100.00;101213.91;6263372;28;20338;-69
2023/10/03 00:17:40;;;;;;;15.23;11.38;;;;;;;17.30;100.00;101204.72;6265260;28;20497;-69
2023/10/03 00:21:02;;;;;;;18.80;11.68;;;;;;;17.38;100.00;101215.63;6265699;28;20231;-69
2023/10/03 00:24:23;;;;;;;16.58;9.52;;;;;;;17.30;100.00;101203.88;6254376;28;20235;-69
2023/10/03 00:27:45;;;;;;;15.10;9.85;;;;;;;17.37;100.00;101208.50;6290969;28;20238;-69
2023/10/03 00:31:09;;;;;;;12.48;11.00;;;;;;;17.28;100.00;101198.59;6263281;28;20223;-69
2023/10/03 00:34:31;;;;;;;11.70;10.15;;;;;;;17.34;100.00;101195.19;6255704;28;20594;-70
2023/10/03 00:37:55;;;;;;;16.00;11.23;;;;;;;17.29;100.00;101188.56;6259633;28;20224;-70
2023/10/03 00:41:17;;;;;;;16.58;11.13;;;;;;;17.46;100.00;101177.44;6254017;28;20337;-70
2023/10/03 00:44:38;;;;;;;15.50;10.73;;;;;;;17.56;100.00;101164.50;6255727;28;20314;-70
2023/10/03 00:48:00;;;;;;;12.35;11.05;;;;;;;17.52;100.00;101160.44;6263128;28;20264;-69
2023/10/03 00:51:22;;;;;;;16.60;10.88;;;;;;;17.30;100.00;101161.13;6268372;28;20313;-70
2023/10/03 00:54:46;;;;;;;13.25;10.85;;;;;;;17.21;100.00;101147.69;6257937;28;20235;-69
2023/10/03 00:58:17;;;;;;;17.10;10.25;;;;;;;17.28;100.00;101156.88;6257886;28;20256;-69
2023/10/03 01:01:38;;;;;;;13.88;10.57;;;;;;;17.33;100.00;101149.03;6263211;28;20600;-70
2023/10/03 01:05:02;;;;;;;13.30;9.32;;;;;;;17.39;100.00;101145.63;6255727;28;20241;-69
2023/10/03 01:08:24;;;;;;;12.40;10.10;;;;;;;17.46;100.00;101132.97;6253634;28;20513;-69
2023/10/03 01:11:47;;;;;;;14.50;10.43;;;;;;;17.55;100.00;101127.38;6265529;28;20597;-69
2023/10/03 01:15:12;;;;;;;11.40;9.60;;;;;;;17.41;100.00;101111.72;6261482;28;20668;-70
2023/10/03 01:18:36;;;;;;;15.95;8.38;;;;;;;17.38;100.00;101106.59;6257385;28;20228;-70
2023/10/03 01:21:59;;;;;;;15.23;10.90;;;;;;;17.42;100.00;101094.31;6285966;28;20315;-69
2023/10/03 01:25:21;;;;;;;14.38;10.57;;;;;;;17.46;100.00;101092.94;6290450;28;20231;-70
2023/10/03 01:28:42;;;;;;;11.10;9.18;;;;;;;17.24;100.00;101077.34;6254709;28;20602;-70
2023/10/03 01:32:04;;;;;;;12.20;9.38;;;;;;;17.30;100.00;101065.75;6262274;28;20597;-70
2023/10/03 01:35:25;;;;;;;11.23;8.52;;;;;;;17.37;100.00;101063.16;6261662;28;20252;-70
2023/10/03 01:38:46;;;;;;;16.83;8.43;;;;;;;17.39;100.00;101042.91;6287291;28;20234;-70
2023/10/03 01:42:09;;;;;;;12.00;8.80;;;;;;;17.43;100.00;101030.63;6254515;28;20230;-70
2023/10/03 01:45:32;;;;;;;12.40;8.88;;;;;;;17.42;100.00;101026.16;6256264;28;20236;-69
2023/10/03 01:48:53;;;;;;;9.60;8.00;;;;;;;17.23;100.00;101033.94;6259426;28;20326;-70
2023/10/03 01:52:14;;;;;;;12.25;9.23;;;;;;;17.06;100.00;101024.94;6259601;28;20243;-70
2023/10/03 01:55:35;;;;;;;12.10;10.10;;;;;;;17.09;100.00;101012.84;6269287;28;20235;-70
2023/10/03 01:59:00;;;;;;;12.93;9.57;;;;;;;17.21;100.00;101001.38;6259504;28;20229;-70
2023/10/03 02:02:21;;;;;;;12.82;9.85;;;;;;;17.18;100.00;100999.03;6261372;28;20235;-70
2023/10/03 02:05:42;;;;;;;13.25;10.30;;;;;;;17.16;100.00;100992.03;6262198;28;20255;-70
2023/10/03 02:09:07;;;;;;;13.98;8.55;;;;;;;17.11;100.00;100989.00;6253696;28;20232;-70
2023/10/03 02:12:29;;;;;;;12.20;9.15;;;;;;;17.05;100.00;100986.97;6260150;28;20723;-70
2023/10/03 02:15:53;;;;;;;11.88;8.80;;;;;;;16.99;100.00;100977.63;6261233;28;20311;-70
2023/10/03 02:19:14;;;;;;;10.73;9.15;;;;;;;16.99;100.00;100982.22;6280213;28;20238;-70
2023/10/03 02:22:38;;;;;;;10.25;8.73;;;;;;;16.91;100.00;100982.25;6291333;28;20318;-69
2023/10/03 02:26:07;;;;;;;12.25;8.88;;;;;;;17.06;100.00;100967.75;6287900;28;20234;-70
2023/10/03 02:29:31;;;;;;;10.48;7.97;;;;;;;16.90;100.00;100958.78;6293149;28;20234;-70
2023/10/03 02:32:54;;;;;;;10.75;8.68;;;;;;;16.87;100.00;100942.78;6290266;28;20231;-69
2023/10/03 02:36:15;;;;;;;12.82;9.38;;;;;;;16.86;100.00;100928.31;6289866;28;20239;-70
2023/10/03 02:39:39;;;;;;;14.88;9.43;;;;;;;16.96;100.00;100919.94;6283951;28;20223;-71
2023/10/03 02:43:00;;;;;;;11.50;8.10;;;;;;;16.87;100.00;100916.41;6290223;28;20230;-70
2023/10/03 02:46:26;;;;;;;11.75;9.20;;;;;;;16.87;100.00;100902.78;6288441;28;20317;-70
2023/10/03 02:49:49;;;;;;;10.98;8.38;;;;;;;17.01;100.00;100882.13;6291800;28;20490;-70
2023/10/03 02:53:17;;;;;;;13.77;8.68;;;;;;;17.10;100.00;100872.88;6276371;28;20302;-70
2023/10/03 02:56:38;;;;;;;12.80;8.73;;;;;;;17.10;100.00;100851.09;6287049;28;20506;-69
2023/10/03 02:59:59;;;;;;;12.90;8.07;;;;;;;17.06;100.00;100841.56;6277660;28;20321;-70
2023/10/03 03:03:23;;;;;;;14.30;8.23;;;;;;;16.97;100.00;100832.59;6265050;28;20244;-69
2023/10/03 03:06:46;;;;;;;12.15;8.48;;;;;;;16.92;100.00;100813.22;6257562;28;20224;-69
2023/10/03 03:10:11;;;;;;;11.18;8.45;;;;;;;17.02;100.00;100791.22;6264446;28;20231;-69
2023/10/03 03:13:35;;;;;;;12.50;9.65;;;;;;;16.71;100.00;100786.59;6268762;28;20629;-69
2023/10/03 03:16:56;;;;;;;13.55;8.50;;;;;;;16.90;100.00;100781.75;6274563;28;20244;-69
2023/10/03 03:20:25;;;;;;;10.77;8.20;;;;;;;16.94;100.00;100773.03;6265101;28;20251;-69
2023/10/03 03:23:56;;;;;;;11.45;8.52;;;;;;;16.71;100.00;100766.69;6254852;28;20219;-71
2023/10/03 03:27:17;;;;;;;12.73;8.73;;;;;;;16.70;100.00;100767.72;6265067;28;20228;-70
2023/10/03 03:30:38;;;;;;;14.27;9.45;;;;;;;16.70;100.00;100767.72;6259233;28;20239;-70
2023/10/03 03:34:00;;;;;;;9.93;7.88;;;;;;;16.66;100.00;100755.50;6303189;28;20229;-70
2023/10/03 03:37:22;;;;;;;12.02;8.50;;;;;;;16.77;100.00;100741.50;6272670;28;20503;-70
2023/10/03 03:40:47;;;;;;;12.00;7.78;;;;;;;16.82;100.00;100730.03;6273061;28;20216;-70
2023/10/03 03:44:11;;;;;;;10.48;7.78;;;;;;;16.73;100.00;100726.53;6280455;28;20816;-70
2023/10/03 03:47:33;;;;;;;10.65;7.80;;;;;;;16.66;100.00;100720.13;6259611;28;20786;-71
2023/10/03 03:50:54;;;;;;;11.73;7.68;;;;;;;16.64;100.00;100703.13;6261137;28;20707;-69
2023/10/03 03:54:15;;;;;;;12.80;7.88;;;;;;;16.58;100.00;100712.00;6268608;28;20616;-70
2023/10/03 03:57:38;;;;;;;11.18;6.95;;;;;;;16.63;100.00;100707.72;6265164;28;20220;-71
2023/10/03 04:01:00;;;;;;;11.98;8.20;;;;;;;16.58;100.00;100692.94;6266194;28;20601;-70
2023/10/03 04:04:22;;;;;;;10.38;7.68;;;;;;;16.50;100.00;100695.72;6260115;28;20239;-71
2023/10/03 04:07:43;;;;;;;7.25;6.50;;;;;;;16.52;100.00;100680.06;6258858;28;20227;-70
2023/10/03 04:11:07;;;;;;;11.48;8.45;;;;;;;16.36;100.00;100678.22;6294989;28;20238;-70
2023/10/03 04:14:29;;;;;;;13.70;9.03;;;;;;;16.35;100.00;100653.94;6283029;28;20226;-70
2023/10/03 04:17:50;;;;;;;9.53;7.43;;;;;;;16.40;100.00;100646.06;6284349;28;20223;-70
2023/10/03 04:21:11;;;;;;;12.03;8.23;;;;;;;16.35;100.00;100646.63;6290057;28;20508;-70
2023/10/03 04:24:32;;;;;;;9.88;7.43;;;;;;;16.41;100.00;100648.63;6284084;28;20219;-71
2023/10/03 04:27:54;;;;;;;10.90;7.37;;;;;;;16.43;100.00;100635.69;6290655;28;20842;-70
2023/10/03 04:31:16;;;;;;;10.52;6.80;;;;;;;16.43;100.00;100637.56;6290595;28;20242;-71
2023/10/03 04:34:37;;;;;;;11.35;6.88;;;;;;;16.49;100.00;100635.00;6283266;28;20505;-70
2023/10/03 04:37:58;;;;;;;10.20;7.07;;;;;;;16.38;100.00;100629.06;6284345;28;20346;-70
2023/10/03 04:41:19;;;;;;;13.95;7.72;;;;;;;16.44;100.00;100621.03;6292702;28;20227;-70
2023/10/03 04:44:40;;;;;;;10.63;7.40;;;;;;;16.53;100.00;100624.59;6281045;28;20235;-70
2023/10/03 04:48:02;;;;;;;10.48;6.78;;;;;;;16.62;100.00;100585.41;6255701;28;20231;-70
2023/10/03 04:51:23;;;;;;;10.60;7.35;;;;;;;16.45;100.00;100570.19;6257672;28;20351;-69
2023/10/03 04:54:44;;;;;;;12.18;7.88;;;;;;;16.31;100.00;100554.66;6257384;28;20236;-70
2023/10/03 04:58:05;;;;;;;9.10;6.72;;;;;;;16.37;100.00;100537.59;6264507;28;20224;-70
2023/10/03 05:01:26;;;;;;;11.57;7.45;;;;;;;16.32;100.00;100540.88;6247640;28;20243;-70
2023/10/03 05:04:49;;;;;;;11.13;7.95;;;;;;;16.31;100.00;100528.28;6257188;28;20224;-70
2023/10/03 05:08:09;;;;;;;10.88;7.75;;;;;;;16.34;100.00;100530.66;6263808;28;20519;-70
2023/10/03 05:11:30;;;;;;;12.40;8.02;;;;;;;16.28;100.00;100538.69;6258116;28;20323;-70
2023/10/03 05:14:51;;;;;;;8.47;6.93;;;;;;;16.33;100.00;100525.41;6259120;28;20231;-70
2023/10/03 05:18:13;;;;;;;11.02;7.38;;;;;;;16.44;100.00;100524.94;6272397;28;20219;-70
2023/10/03 05:21:37;;;;;;;12.60;7.28;;;;;;;16.51;100.00;100512.34;6249315;28;20243;-71
2023/10/03 05:24:58;;;;;;;9.00;6.77;;;;;;;16.38;100.00;100504.75;6272037;28;20224;-70
2023/10/03 05:28:19;;;;;;;10.87;7.17;;;;;;;16.38;100.00;100498.47;6251936;28;20597;-70
2023/10/03 05:31:41;;;;;;;7.07;6.20;;;;;;;16.37;100.00;100503.09;6250560;28;20243;-71
2023/10/03 05:35:02;;;;;;;11.85;7.40;;;;;;;16.34;100.00;100492.56;6262838;28;20227;-71
2023/10/03 05:38:24;;;;;;;15.23;8.35;;;;;;;16.42;100.00;100481.59;6256458;28;20276;-70
2023/10/03 05:41:45;;;;;;;12.93;8.30;;;;;;;16.42;100.00;100489.75;6259380;28;20228;-71
2023/10/03 05:45:08;;;;;;;11.13;7.53;;;;;;;16.53;100.00;100500.25;6257221;28;20239;-71
2023/10/03 05:48:29;;;;;;;12.00;7.67;;;;;;;16.59;100.00;100496.78;6259764;28;20228;-69
2023/10/03 05:51:49;;;;;;;13.00;8.73;;;;;;;16.65;100.00;100487.03;6303193;28;20228;-71
2023/10/03 05:55:12;;;;;;;13.38;9.25;;;;;;;16.66;100.00;100489.59;6269024;28;20605;-70
2023/10/03 05:58:34;;;;;;;8.53;7.30;;;;;;;16.61;100.00;100478.41;6263556;28;20235;-70
2023/10/03 06:01:55;;;;;;;10.13;6.87;;;;;;;16.67;100.00;100485.81;6262756;28;20223;-70
2023/10/03 06:05:17;;;;;;;8.57;7.40;;;;;;;16.68;100.00;100492.97;6265750;28;20235;-70
2023/10/03 06:08:37;;;;;;;11.53;6.87;;;;;;;16.78;100.00;100488.09;6267280;28;20236;-70
2023/10/03 06:12:00;;;;;;;13.15;8.65;;;;;;;16.76;100.00;100483.88;6266337;28;20255;-70
2023/10/03 06:15:24;;;;;;;11.57;8.17;;;;;;;16.86;100.00;100479.00;6252642;28;20237;-71
2023/10/03 06:18:44;;;;;;;13.40;8.18;;;;;;;16.96;100.00;100468.66;6263877;28;20224;-71
2023/10/03 06:22:08;;;;;;;13.45;9.13;;;;;;;17.03;100.00;100468.75;6264677;28;20232;-70
2023/10/03 06:25:29;;;;;;;12.18;8.15;;;;;;;17.18;100.00;100470.47;6250632;28;20240;-71
2023/10/03 06:28:51;;;;;;;14.02;8.70;;;;;;;17.47;100.00;100467.72;6268267;28;20310;-70
2023/10/03 06:32:12;;;;;;;12.15;8.52;;;;;;;17.63;100.00;100466.66;6265836;28;20315;-70
2023/10/03 06:35:33;;;;;;;13.07;8.15;;;;;;;17.82;100.00;100465.19;6263449;28;20256;-70
2023/10/03 06:38:54;;;;;;;11.07;7.20;;;;;;;17.92;98.97;100457.56;6286524;28;20232;-71
2023/10/03 06:42:15;;;;;;;13.15;8.48;;;;;;;17.99;98.03;100442.94;6262720;28;20244;-70
2023/10/03 06:45:37;;;;;;;13.35;8.85;;;;;;;18.07;96.90;100437.38;6260494;28;20260;-70
2023/10/03 06:48:59;;;;;;;11.05;7.82;;;;;;;18.20;96.31;100459.31;6262001;28;20514;-71
2023/10/03 06:52:20;;;;;;;14.20;9.00;;;;;;;18.30;95.34;100457.09;6263764;28;20231;-71
2023/10/03 06:55:41;;;;;;;14.00;9.05;;;;;;;18.40;94.70;100445.84;6263492;28;20727;-71
2023/10/03 06:59:04;;;;;;;14.52;9.40;;;;;;;18.50;94.11;100446.41;6272739;28;20867;-71
2023/10/03 07:02:26;;;;;;;14.20;9.30;;;;;;;18.64;93.41;100450.06;6262513;28;20256;-71
2023/10/03 07:05:47;;;;;;;12.73;8.45;;;;;;;18.93;91.65;100438.91;6267983;28;20235;-71
2023/10/03 07:09:10;;;;;;;16.20;8.25;;;;;;;19.01;91.45;100442.34;6265790;28;20239;-70
2023/10/03 07:12:31;;;;;;;18.05;9.43;;;;;;;19.21;90.61;100438.88;6265837;28;20293;-70
2023/10/03 07:15:53;;;;;;;13.57;9.77;;;;;;;19.41;89.83;100439.81;6290148;28;20251;-70
2023/10/03 07:19:15;;;;;;;13.02;8.93;;;;;;;19.63;88.93;100444.16;6300193;28;20242;-70
2023/10/03 07:22:37;;;;;;;12.43;8.35;;;;;;;19.79;88.58;100443.75;6277750;28;20247;-71
2023/10/03 07:25:58;;;;;;;12.25;9.32;;;;;;;20.05;87.14;100440.25;6260729;28;20232;-70
2023/10/03 07:29:20;;;;;;;11.80;8.75;;;;;;;20.09;86.65;100442.34;6260482;28;20275;-71
2023/10/03 07:32:41;;;;;;;15.32;9.15;;;;;;;20.14;86.11;100439.84;6266390;28;20288;-70
2023/10/03 07:36:07;;;;;;;10.32;7.97;;;;;;;20.22;85.44;100433.34;6265724;28;20240;-70
2023/10/03 07:39:28;;;;;;;12.60;7.93;;;;;;;20.21;85.45;100440.72;6258817;28;20594;-69
2023/10/03 07:42:50;;;;;;;18.13;10.27;;;;;;;20.22;85.73;100458.81;6270595;28;20225;-69
2023/10/03 07:46:11;;;;;;;10.98;8.50;;;;;;;20.24;85.78;100475.03;6263493;28;20558;-70
2023/10/03 07:49:32;;;;;;;18.15;10.88;;;;;;;20.28;85.39;100476.28;6261712;28;20235;-69
2023/10/03 07:52:54;;;;;;;13.65;8.32;;;;;;;20.32;85.59;100477.56;6260143;28;20603;-69
2023/10/03 07:56:24;;;;;;;22.75;9.55;;;;;;;20.31;85.57;100484.97;6265448;28;20241;-70
2023/10/03 07:59:45;;;;;;;15.95;10.10;;;;;;;20.30;85.94;100477.78;6265161;28;20738;-70
2023/10/03 08:03:08;;;;;;;13.52;7.65;;;;;;;20.30;86.21;100471.47;6260798;28;20593;-70
2023/10/03 08:06:33;;;;;;;17.33;9.77;;;;;;;20.35;86.20;100483.50;6263805;28;20235;-70
2023/10/03 08:09:55;;;;;;;13.43;8.95;;;;;;;20.35;86.75;100479.91;6263003;28;20236;-70
2023/10/03 08:13:17;;;;;;;12.32;8.95;;;;;;;20.25;86.72;100493.16;6253503;28;20311;-70
2023/10/03 08:16:39;;;;;;;14.48;9.25;;;;;;;20.19;87.44;100488.50;6262240;28;20277;-70
2023/10/03 08:20:05;;;;;;;17.13;8.88;;;;;;;20.20;87.73;100466.41;6284300;28;21997;-69
2023/10/03 08:23:26;;;;;;;14.73;9.00;;;;;;;20.29;87.58;100489.81;6248942;28;20224;-69
2023/10/03 08:26:50;;;;;;;18.13;8.57;;;;;;;20.42;86.94;100484.31;6256847;28;20228;-69
2023/10/03 08:30:25;;;;;;;12.95;9.10;;;;;;;20.64;86.40;100461.16;6252308;28;20273;-70
2023/10/03 08:33:46;;;;;;;11.13;8.30;;;;;;;20.58;86.26;100477.59;6257144;28;20240;-69
2023/10/03 08:37:07;;;;;;;12.55;8.18;;;;;;;20.66;85.75;100461.78;6262490;28;20322;-70
2023/10/03 08:40:28;;;;;;;12.60;7.50;;;;;;;20.77;85.76;100470.44;6254834;28;20232;-69
2023/10/03 08:43:54;;;;;;;16.67;9.50;;;;;;;20.83;85.35;100477.78;6260382;28;20665;-69
2023/10/03 08:47:19;;;;;;;14.52;9.18;;;;;;;21.03;84.90;100470.41;6264733;28;20601;-69
2023/10/03 08:50:46;;;;;;;14.75;9.15;;;;;;;21.10;84.27;100482.22;6260478;28;20232;-70
2023/10/03 08:54:10;;;;;;;12.20;8.98;;;;;;;21.09;84.04;100491.50;6256124;28;20235;-70
2023/10/03 08:57:31;;;;;;;15.13;6.57;;;;;;;21.11;84.07;100476.50;6255315;28;20263;-70
2023/10/03 09:00:58;;;;;;;13.73;8.30;;;;;;;21.32;83.45;100491.84;6262282;28;20232;-70
2023/10/03 09:04:19;;;;;;;10.70;7.32;;;;;;;21.58;82.42;100477.22;6256841;28;20244;-70
2023/10/03 09:07:44;;;;;;;10.90;7.40;;;;;;;21.62;81.76;100503.16;6258856;28;20235;-70
2023/10/03 09:11:13;;;;;;;11.52;6.55;;;;;;;21.22;82.26;100486.81;6288463;28;20235;-71
2023/10/03 09:14:36;;;;;;;9.65;5.68;;;;;;;20.95;82.54;100476.09;6273730;28;20232;-72
2023/10/03 09:18:00;;;;;;;8.77;5.90;;;;;;;20.90;83.29;100484.13;6256692;28;20231;-71
2023/10/03 09:21:24;;;;;;;10.38;6.28;;;;;;;20.80;83.77;100497.41;6266286;28;20235;-70
2023/10/03 09:24:46;;;;;;;8.63;5.47;;;;;;;20.86;84.00;100493.81;6272486;28;20235;-70
2023/10/03 09:28:07;;;;;;;7.90;4.75;;;;;;;20.75;84.16;100510.91;6263274;28;20231;-70
2023/10/03 09:31:31;;;;;;;9.98;5.68;;;;;;;20.63;84.87;100499.75;6256479;28;20252;-70
2023/10/03 09:34:57;;;;;;;10.05;6.22;;;;;;;20.62;85.50;100484.34;6253964;28;20321;-71
2023/10/03 09:38:25;;;;;;;10.50;7.32;;;;;;;20.52;85.93;100495.72;6257451;28;20228;-73
2023/10/03 09:41:46;;;;;;;10.80;7.32;;;;;;;20.50;86.63;100475.06;6260412;28;20231;-72
2023/10/03 09:45:08;;;;;;;10.13;6.88;;;;;;;20.54;86.39;100499.09;6254172;28;20239;-72
2023/10/03 09:48:29;;;;;;;12.98;7.07;;;;;;;20.51;86.62;100499.50;6263259;28;20236;-71
2023/10/03 09:51:53;;;;;;;10.50;6.75;;;;;;;21.21;85.24;100493.38;6261325;28;20247;-70
2023/10/03 09:55:21;;;;;;;12.10;7.32;;;;;;;21.60;82.20;100481.44;6257430;28;20383;-71
2023/10/03 09:58:46;;;;;;;13.25;7.93;;;;;;;21.29;82.64;100498.63;6256813;28;20228;-71
2023/10/03 10:02:12;;;;;;;10.98;6.38;;;;;;;21.17;83.32;100494.84;6263705;28;20318;-71
2023/10/03 10:05:34;;;;;;;10.80;6.88;;;;;;;21.06;83.50;100495.53;6263672;28;20232;-71
2023/10/03 10:09:03;;;;;;;9.13;5.57;;;;;;;20.82;83.90;100498.88;6260363;28;20235;-70
2023/10/03 10:12:25;;;;;;;7.00;5.68;;;;;;;20.74;84.49;100504.56;6263506;28;20242;-70
2023/10/03 10:16:07;;;;;;;9.70;6.30;;;;;;;21.09;83.35;100500.56;6265839;28;20536;-70
2023/10/03 10:20:12;;;;;;;9.95;5.90;;;;;;;20.78;84.13;100497.59;6257482;28;20240;-69
2023/10/03 10:23:35;;;;;;;8.50;5.05;;;;;;;20.76;84.30;100516.16;6263140;28;20335;-70
2023/10/03 10:26:59;;;;;;;8.93;5.13;;;;;;;20.70;84.16;100525.22;6255069;28;20231;-70
2023/10/03 10:30:20;;;;;;;6.75;5.90;;;;;;;20.69;84.60;100512.59;6263127;28;20227;-70
2023/10/03 10:33:41;;;;;;;6.45;4.80;;;;;;;20.60;84.87;100511.94;6256049;28;20248;-71
2023/10/03 10:37:04;;;;;;;8.60;5.80;;;;;;;20.51;85.38;100539.75;6263983;28;20228;-70
2023/10/03 10:40:29;;;;;;;7.30;4.05;;;;;;;20.32;86.00;100552.34;6254066;28;20239;-71
2023/10/03 10:44:08;;;;;;;8.60;4.78;;;;;;;20.34;86.40;100541.22;6256615;28;20262;-70
2023/10/03 10:47:33;;;;;;;8.07;3.53;;;;;;;20.11;87.55;100563.41;6258847;28;20275;-70
2023/10/03 10:51:12;;;;;;;6.20;3.45;;;;;;;19.79;89.59;100569.63;6260366;28;20255;-72
2023/10/03 10:54:35;;;;;;;5.20;3.92;;;;;;;19.69;90.86;100569.16;6245292;28;20240;-72
2023/10/03 10:58:07;;;;;;;6.43;3.63;;;;;;;19.49;92.28;100582.69;6261868;28;20601;-71
2023/10/03 11:01:30;;;;;;;6.05;3.53;;;;;;;19.14;95.19;100592.75;6263546;28;20224;-72
2023/10/03 11:04:54;;;;;;;6.68;3.80;;;;;;;18.74;98.96;100607.09;6270680;28;20232;-71
2023/10/03 11:08:17;;;;;;;5.65;3.78;;;;;;;18.35;100.00;100610.22;6261661;28;20266;-72
2023/10/03 11:11:41;;;;;;;5.93;4.20;;;;;;;18.21;100.00;100616.53;6262548;28;20227;-72
2023/10/03 11:15:05;;;;;;;7.95;5.32;;;;;;;18.27;100.00;100634.06;6264960;28;20227;-72
2023/10/03 11:18:30;;;;;;;7.65;4.35;;;;;;;18.33;100.00;100655.13;6257583;28;20232;-71
2023/10/03 11:21:51;;;;;;;7.97;4.57;;;;;;;18.33;100.00;100638.75;6260311;28;20227;-71
2023/10/03 11:25:12;;;;;;;4.57;3.33;;;;;;;18.25;100.00;100647.06;6267896;28;20239;-70
2023/10/03 11:28:46;;;;;;;6.25;3.15;;;;;;;18.38;100.00;100640.91;6254337;28;20236;-70
2023/10/03 11:32:18;;;;;;;3.92;3.20;;;;;;;18.45;100.00;100656.34;6267822;28;20227;-71
2023/10/03 11:35:51;;;;;;;5.05;2.90;;;;;;;18.42;100.00;100658.59;6260395;28;20228;-71
2023/10/03 11:39:23;;;;;;;5.32;3.25;;;;;;;18.43;100.00;100658.38;6266570;28;20227;-71
2023/10/03 11:42:49;;;;;;;4.70;2.42;;;;;;;18.40;100.00;100669.69;6277687;28;20507;-71
2023/10/03 11:46:11;;;;;;;6.13;2.38;;;;;;;18.39;100.00;100681.66;6264428;28;20269;-71
2023/10/03 11:49:32;;;;;;;4.13;2.15;;;;;;;18.36;100.00;100682.03;6272477;28;20461;-72
2023/10/03 11:52:56;;;;;;;7.25;1.75;;;;;;;18.17;100.00;100715.34;6267270;28;20223;-72
2023/10/03 11:56:18;;;;;;;2.45;1.17;;;;;;;18.03;100.00;100714.34;6259307;28;20311;-71
2023/10/03 11:59:40;;;;;;;3.53;1.60;;;;;;;18.01;100.00;100721.00;6267878;28;20232;-71
2023/10/03 12:03:03;;;;;;;3.60;1.38;;;;;;;18.01;100.00;100726.47;6281147;28;20227;-71
2023/10/03 12:06:24;;;;;;;12.32;1.83;;;;;;;17.98;100.00;100718.69;6286769;28;20228;-71
2023/10/03 12:09:47;;;;;;;5.88;1.48;;;;;;;18.18;100.00;100731.56;6284035;28;20219;-71
2023/10/03 12:13:09;;;;;;;5.85;1.98;;;;;;;18.05;100.00;100763.25;6287549;28;20246;-71
2023/10/03 12:16:30;;;;;;;3.88;1.48;;;;;;;17.94;100.00;100774.66;6284990;28;20256;-70
2023/10/03 12:19:53;;;;;;;2.92;2.10;;;;;;;18.03;100.00;100765.31;6287593;28;20235;-71
2023/10/03 12:23:15;;;;;;;1.85;1.00;;;;;;;17.89;100.00;100780.66;6290931;28;20247;-71
2023/10/03 12:26:37;;;;;;;1.67;0.80;;;;;;;17.83;100.00;100789.59;6286709;28;20394;-70
2023/10/03 12:30:00;;;;;;;1.75;0.80;;;;;;;17.66;100.00;100766.22;6287956;28;20226;-71
2023/10/03 12:33:20;;;;;;;1.50;1.08;;;;;;;17.49;100.00;100811.84;6282234;28;20246;-71
2023/10/03 12:36:41;;;;;;;5.60;1.77;;;;;;;17.21;100.00;100818.81;6289753;28;20226;-70
2023/10/03 12:40:04;;;;;;;2.97;1.08;;;;;;;17.04;100.00;100840.91;6284039;28;20239;-71
2023/10/03 12:43:27;;;;;;;3.00;0.73;;;;;;;16.85;100.00;100833.19;6288429;28;20231;-71
2023/10/03 12:46:49;;;;;;;3.45;1.05;;;;;;;17.00;100.00;100821.34;6284384;28;20884;-71
2023/10/03 12:50:10;;;;;;;2.05;1.15;;;;;;;17.28;100.00;100841.59;6286581;28;20251;-70
2023/10/03 12:53:35;;;;;;;2.95;0.85;;;;;;;17.09;99.96;100843.94;6283806;28;20239;-70
2023/10/03 12:56:56;;;;;;;2.08;1.33;;;;;;;17.13;99.73;100862.47;6282267;28;20222;-71
2023/10/03 13:00:20;;;;;;;2.00;1.25;;;;;;;17.25;99.08;100863.75;6267680;28;20231;-70
2023/10/03 13:03:42;;;;;;;3.00;0.80;;;;;;;17.12;99.50;100879.84;6279981;28;20326;-70
2023/10/03 13:07:03;;;;;;;2.50;0.90;;;;;;;17.29;99.29;100886.06;6272754;28;20228;-70
2023/10/03 13:10:26;;;;;;;2.83;1.67;;;;;;;17.42;99.14;100872.69;6280495;28;20239;-70
2023/10/03 13:13:48;;;;;;;2.05;1.48;;;;;;;17.60;98.62;100878.75;6270825;28;20228;-71
2023/10/03 13:17:10;;;;;;;4.78;1.33;;;;;;;17.77;97.63;100876.72;6274126;28;20309;-71
2023/10/03 13:20:31;;;;;;;1.75;1.00;;;;;;;17.80;97.19;100873.63;6285994;28;20231;-71
2023/10/03 13:23:54;;;;;;;9.68;1.90;;;;;;;18.06;96.30;100871.38;6281463;28;20702;-71
2023/10/03 13:27:15;;;;;;;5.97;1.83;;;;;;;17.70;95.82;100894.84;6282999;28;20235;-70
2023/10/03 13:30:36;;;;;;;5.75;1.63;;;;;;;17.64;95.57;100898.31;6279520;28;20314;-70
2023/10/03 13:33:59;;;;;;;1.02;0.90;;;;;;;17.34;95.22;100911.75;6278645;28;20568;-70
2023/10/03 13:37:20;;;;;;;5.97;1.88;;;;;;;17.20;95.75;100925.28;6282974;28;20318;-71
2023/10/03 13:40:43;;;;;;;1.95;1.20;;;;;;;17.29;95.46;100930.50;6289196;28;20322;-71
2023/10/03 13:44:05;;;;;;;3.28;1.92;;;;;;;17.47;95.31;100938.41;6283502;28;20215;-72
2023/10/03 13:47:26;;;;;;;4.03;1.30;;;;;;;17.75;93.69;100964.19;6281147;28;20219;-72
2023/10/03 13:50:50;;;;;;;3.88;1.20;;;;;;;17.27;92.34;100961.69;6285347;28;20280;-71
2023/10/03 13:54:11;;;;;;;3.90;1.17;;;;;;;17.02;92.89;100969.09;6286782;28;20251;-71
2023/10/03 13:57:32;;;;;;;4.75;1.75;;;;;;;17.04;93.44;100977.97;6283701;28;20267;-70
2023/10/03 14:00:53;;;;;;;1.98;1.13;;;;;;;17.01;93.47;100989.19;6283510;28;20230;-71
2023/10/03 14:04:14;;;;;;;2.53;1.30;;;;;;;16.93;94.33;101005.56;6285689;28;20234;-72
2023/10/03 14:07:36;;;;;;;4.15;1.25;;;;;;;16.91;95.10;101013.06;6280098;28;20247;-71
2023/10/03 14:10:57;;;;;;;2.38;1.83;;;;;;;16.68;95.57;101028.41;6283979;28;20312;-71
2023/10/03 14:14:18;;;;;;;4.07;1.67;;;;;;;16.54;95.52;101040.81;6284950;28;20231;-71
2023/10/03 14:17:39;;;;;;;6.40;1.90;;;;;;;16.60;94.72;101042.03;6286236;28;20231;-71
2023/10/03 14:21:10;;;;;;;3.17;1.63;;;;;;;16.63;93.65;101045.25;6287800;28;20239;-71
2023/10/03 14:24:33;;;;;;;6.10;1.83;;;;;;;16.66;93.71;101030.47;6293793;28;20588;-71
2023/10/03 14:27:54;;;;;;;3.53;1.63;;;;;;;16.64;93.12;101035.22;6282272;28;20347;-71
2023/10/03 14:31:15;;;;;;;7.50;2.80;;;;;;;16.83;91.49;101042.19;6289655;28;20307;-71
2023/10/03 14:34:36;;;;;;;4.35;2.40;;;;;;;16.93;90.05;101054.59;6281038;28;20227;-71
2023/10/03 14:37:57;;;;;;;6.47;2.10;;;;;;;16.82;88.35;101068.56;6284201;28;20236;-71
2023/10/03 14:41:19;;;;;;;5.70;2.28;;;;;;;16.95;86.50;101070.75;6283459;28;20235;-70
2023/10/03 14:44:41;;;;;;;6.13;1.73;;;;;;;17.03;84.59;101073.47;6289518;28;20278;-71
2023/10/03 14:48:02;;;;;;;2.13;1.60;;;;;;;17.10;82.44;101072.63;6299937;28;20219;-71
2023/10/03 14:51:23;;;;;;;3.45;2.17;;;;;;;16.97;80.81;101095.94;6299729;28;20227;-71
2023/10/03 14:54:45;;;;;;;5.97;2.38;;;;;;;17.14;80.61;101105.81;6287294;28;20597;-71
2023/10/03 14:58:08;;;;;;;5.63;2.55;;;;;;;17.19;79.97;101108.88;6282932;28;20234;-72
2023/10/03 15:01:29;;;;;;;2.85;1.80;;;;;;;17.07;79.64;101121.13;6278888;28;20298;-71
2023/10/03 15:04:50;;;;;;;6.55;2.45;;;;;;;17.06;79.97;101114.00;6283001;28;20226;-71
2023/10/03 15:08:11;;;;;;;3.42;2.17;;;;;;;17.15;79.82;101124.69;6284422;28;20502;-71
2023/10/03 15:11:32;;;;;;;4.80;1.88;;;;;;;17.68;77.96;101115.06;6283545;28;20235;-71
2023/10/03 15:14:55;;;;;;;3.78;2.10;;;;;;;17.73;77.34;101124.41;6278334;28;20227;-71
2023/10/03 15:18:15;;;;;;;3.33;2.00;;;;;;;18.19;76.47;101136.31;6291090;28;20223;-71
2023/10/03 15:21:36;;;;;;;6.50;2.30;;;;;;;17.93;75.86;101124.84;6290281;28;20243;-72
2023/10/03 15:24:57;;;;;;;5.75;2.50;;;;;;;18.23;75.49;101137.66;6285993;28;20239;-72
2023/10/03 15:28:19;;;;;;;7.05;3.15;;;;;;;17.68;76.23;101151.38;6247028;28;20507;-71